ADDS METAR Data INFO
IDs: Format: Raw Decoded Include TAF

Data at: 2256 UTC 22 Jun 2018

KEWB 222253Z 16006KT 10SM CLR 19/11 A3005 RMK AO2 SLP176 T01890106
KEWB 222153Z 15008KT 10SM CLR 19/10 A3005 RMK AO2 SLP176 T01940100
KEWB 222053Z 15008KT 10SM CLR 20/14 A3005 RMK AO2 SLP176 T02000139 50003
KEWB 221953Z 13009KT 10SM CLR 21/15 A3006 RMK AO2 SLP179 T02060150
KEWB 221853Z 11008KT 10SM CLR 22/13 A3005 RMK AO2 SLP174 T02170133
KEWB 221753Z 14010KT 10SM CLR 23/12 A3004 RMK AO2 SLP172 T02330122 10239 20172 50003
KEWB 221653Z 14011KT 10SM CLR 23/12 A3005 RMK AO2 SLP174 T02280122
KEWB 221553Z 16012KT 10SM BKN036 24/16 A3004 RMK AO2 SLP172 T02390156
KEWB 221453Z 07006KT 10SM CLR 23/15 A3003 RMK AO2 SLP169 T02280150 51005
KEWB 221353Z 06007KT 10SM CLR 22/16 A3003 RMK AO2 SLP168 T02170161
KEWB 221253Z VRB05KT 10SM FEW012 20/16 A3003 RMK AO2 SLP168 T02000156
KEWB 221243Z VRB05KT 10SM SCT011 19/16 A3003 RMK AO2 T01940161
KEWB 221153Z 05006KT 10SM BKN010 17/16 A3002 RMK AO2 SLP164 T01720156 10172 20144 51024
KEWB 221053Z VRB04KT 10SM BKN006 17/16 A3000 RMK AO2 CIG 005V009 SLP157 T01670161
KEWB 220953Z AUTO 00000KT 10SM OVC005 16/16 A2997 RMK AO2 SLP149 T01560156
KEWB 220853Z AUTO 00000KT 10SM BKN006 15/14 A2995 RMK AO2 SLP140 T01500144 51013
KEWB 220848Z AUTO 00000KT 10SM SCT006 14/14 A2994 RMK AO2
KEWB 220753Z AUTO 01004KT 10SM CLR 15/15 A2992 RMK AO2 SLP130 T01500150
KEWB 220728Z AUTO 36004KT 10SM SCT002 16/16 A2991 RMK AO2 T01560156
KEWB 220653Z AUTO 00000KT 5SM R05/5000VP6000FT BR OVC002 17/17 A2991 RMK AO2 SLP127 T01670167
KEWB 220627Z AUTO 00000KT 4SM BR OVC002 17/17 A2991 RMK AO2 T01670167
KEWB 220616Z AUTO 00000KT 2 1/2SM BR OVC002 17/17 A2991 RMK AO2 T01670167
KEWB 220553Z AUTO 00000KT 4SM BR OVC002 17/17 A2990 RMK AO2 SLP124 T01670167 10211 20167 51005
KEWB 220537Z AUTO 34004KT 4SM BR OVC002 17/17 A2990 RMK AO2 T01720172
KEWB 220510Z AUTO 00000KT 2SM BR OVC002 17/17 A2990 RMK AO2 T01720172
KEWB 220453Z AUTO 00000KT 7SM OVC002 18/18 A2989 RMK AO2 SLP122 T01780178 402610167
KEWB 220445Z AUTO VRB03KT 2 1/2SM R05/2400VP6000FT BR OVC002 18/18 A2989 RMK AO2 T01780178
KEWB 220432Z AUTO 00000KT 1/2SM R05/1600V2600FT FG VV002 18/18 A2989 RMK AO2 T01780178
KEWB 220424Z AUTO 00000KT 1/4SM R05/1600V2000FT FG VV002 17/17 A2988 RMK AO2 T01720172
KEWB 220353Z AUTO 25003KT 1/2SM R05/1600V2400FT FG VV002 17/17 A2988 RMK AO2 SLP119 T01720172
KEWB 220346Z AUTO 00000KT 1/2SM R05/1600V2000FT FG VV002 17/17 A2988 RMK AO2 T01720172
KEWB 220336Z AUTO 00000KT 1/4SM R05/1800V2400FT FG VV002 17/17 A2988 RMK AO2 T01720172
KEWB 220310Z AUTO 00000KT 1/4SM R05/1400V2000FT FG VV002 17/17 A2988 RMK AO2 T01720172
KEWB 220304Z AUTO 23003KT 1 1/4SM R05/1400VP6000FT BR BKN003 17/17 A2988 RMK AO2 T01670167
KEWB 220300Z AUTO 00000KT 7SM R05/3000VP6000FT SCT003 17/17 A2988 RMK AO2 T01670167
KEWB 220253Z AUTO 26004KT 10SM CLR 17/17 A2987 RMK AO2 SLP115 T01670167 53013
KEWB 220153Z 22003KT 10SM FEW090 17/17 A2986 RMK AO2 SLP109 T01720172
KEWB 220107Z 24003KT 10SM SCT011 BKN100 19/18 A2984 RMK AO2 T01890178
KEWB 220053Z 21003KT 10SM BKN011 19/18 A2983 RMK AO2 SLP102 T01940183
KEWB 220051Z 21003KT 10SM BKN011 19/18 A2983 RMK AO2
KEWB 212353Z 13007KT 10SM SCT028 21/19 A2981 RMK AO2 SLP094 T02110189 10261 20211 51020
KEWB 212253Z 00000KT 10SM SCT041 22/19 A2979 RMK AO2 SLP088 T02220189
KEWB 212153Z 12007KT 10SM SCT046 23/19 A2977 RMK AO2 SLP082 T02330189
KEWB 212053Z 13009KT 10SM FEW040 FEW055 24/18 A2975 RMK AO2 SLP075 T02440178 53003
KEWB 211953Z COR 13007KT 10SM SCT040 SCT050 25/17 A2974 RMK AO2 SLP071 T02500167
KEWB 211853Z 14008KT 10SM SCT037 26/17 A2974 RMK AO2 SLP070 T02560172
KEWB 211753Z COR 12009KT 10SM SCT035 26/18 A2974 RMK AO2 SLP072 T02560183 10256 20194 58012
KEWB 211653Z 12009KT 10SM SCT031 25/19 A2976 RMK AO2 SLP078 T02500189
KEWB 211553Z 14005KT 10SM CLR 24/16 A2977 RMK AO2 SLP082 T02440161
KEWB 211453Z 16004KT 10SM CLR 23/18 A2978 RMK AO2 SLP084 T02280183 51002
KEWB 211353Z 16004KT 10SM CLR 21/17 A2978 RMK AO2 SLP084 T02060167
KEWB 211253Z 19006KT 10SM SCT110 20/17 A2978 RMK AO2 SLP084 T02000167
KEWB 211153Z 19005KT 10SM FEW120 19/18 A2977 RMK AO2 SLP082 60000 T01940178 10194 20189 51011